createdAt,value
2022-09-23T00:00:17.905Z,82.87
2022-09-23T00:01:21.359Z,82.90
2022-09-23T00:02:25.033Z,82.91
2022-09-23T00:04:00.695Z,83.13
2022-09-23T00:05:03.594Z,83.08
2022-09-23T00:06:06.608Z,83.24
2022-09-23T00:07:41.721Z,83.26
2022-09-23T00:08:44.774Z,83.29
2022-09-23T00:09:48.086Z,83.45
2022-09-23T00:11:23.149Z,83.52
2022-09-23T00:12:26.021Z,83.71
2022-09-23T00:13:28.967Z,83.61
2022-09-23T00:15:04.182Z,83.59
2022-09-23T00:16:07.351Z,83.61
2022-09-23T00:17:10.854Z,83.75
2022-09-23T00:18:45.689Z,83.83
2022-09-23T00:19:48.874Z,84.16
2022-09-23T00:20:51.973Z,83.93
2022-09-23T00:22:27.078Z,84.09
2022-09-23T00:23:30.002Z,84.15
2022-09-23T00:24:33.077Z,84.40
2022-09-23T00:26:08.389Z,84.53
2022-09-23T00:27:11.450Z,84.57
2022-09-23T00:28:14.480Z,84.86
2022-09-23T00:29:49.771Z,84.91
2022-09-23T00:30:52.891Z,84.95
2022-09-23T00:31:56.664Z,85.01
2022-09-23T00:33:31.536Z,85.14
2022-09-23T00:34:34.507Z,85.25
2022-09-23T00:35:37.625Z,85.29
2022-09-23T00:37:12.531Z,85.39
2022-09-23T00:38:15.658Z,85.45
2022-09-23T00:39:18.634Z,85.44
2022-09-23T00:40:53.766Z,85.50
2022-09-23T00:41:57.262Z,85.59
2022-09-23T00:43:00.602Z,85.58
2022-09-23T00:44:35.790Z,85.60
2022-09-23T00:45:38.917Z,85.62
2022-09-23T00:46:42.699Z,85.55
2022-09-23T00:48:17.726Z,85.56
2022-09-23T00:49:20.778Z,85.57
2022-09-23T00:50:23.879Z,85.62
2022-09-23T00:51:58.844Z,85.68
2022-09-23T00:53:01.980Z,85.74
2022-09-23T00:54:05.209Z,85.78
2022-09-23T00:55:40.187Z,85.77
2022-09-23T00:56:43.376Z,85.79
2022-09-23T00:57:46.641Z,85.79
2022-09-23T00:59:21.426Z,85.87
2022-09-23T01:00:18.254Z,85.92
2022-09-23T01:01:21.290Z,85.94
2022-09-23T01:02:24.987Z,85.84
2022-09-23T01:04:00.326Z,85.61
2022-09-23T01:05:03.481Z,85.64
2022-09-23T01:06:06.544Z,85.68
2022-09-23T01:07:41.904Z,85.76
2022-09-23T01:08:45.018Z,85.77
2022-09-23T01:09:48.232Z,85.90
2022-09-23T01:11:23.197Z,85.92
2022-09-23T01:12:26.318Z,85.98
2022-09-23T01:13:29.589Z,86.17
2022-09-23T01:15:04.562Z,86.19
2022-09-23T01:16:07.544Z,86.20
2022-09-23T01:17:10.991Z,86.20
2022-09-23T01:18:46.049Z,86.19
2022-09-23T01:19:48.852Z,86.24
2022-09-23T01:20:52.039Z,86.30
2022-09-23T01:22:26.937Z,86.31
2022-09-23T01:23:29.995Z,86.16
2022-09-23T01:24:32.873Z,86.14
2022-09-23T01:26:08.179Z,86.23
2022-09-23T01:27:11.104Z,86.23
2022-09-23T01:28:14.129Z,86.19
2022-09-23T01:29:49.111Z,86.21
2022-09-23T01:30:52.333Z,86.23
2022-09-23T01:31:55.966Z,86.18
2022-09-23T01:33:30.933Z,86.19
2022-09-23T01:34:34.139Z,86.26
2022-09-23T01:35:37.145Z,86.27
2022-09-23T01:37:12.096Z,86.25
2022-09-23T01:38:15.097Z,86.21
2022-09-23T01:39:18.111Z,86.20
2022-09-23T01:40:53.419Z,86.16
2022-09-23T01:41:56.477Z,86.16
2022-09-23T01:42:59.657Z,86.19
2022-09-23T01:44:34.734Z,86.19
2022-09-23T01:45:37.781Z,86.19
2022-09-23T01:46:41.096Z,86.30
2022-09-23T01:48:16.559Z,86.25
2022-09-23T01:49:19.999Z,86.31
2022-09-23T01:50:23.081Z,86.36
2022-09-23T01:51:58.092Z,86.21
2022-09-23T01:53:01.287Z,86.23
2022-09-23T01:54:04.246Z,86.23
2022-09-23T01:55:39.290Z,86.23
2022-09-23T01:56:42.335Z,86.26
2022-09-23T01:57:45.362Z,86.48
2022-09-23T01:59:20.252Z,86.38
2022-09-23T02:00:18.005Z,86.38
2022-09-23T02:01:21.395Z,86.31
2022-09-23T02:02:25.378Z,86.37
2022-09-23T02:04:00.805Z,86.46
2022-09-23T02:05:04.200Z,86.54
2022-09-23T02:06:07.209Z,86.56
2022-09-23T02:07:42.273Z,86.54
2022-09-23T02:08:45.306Z,86.47
2022-09-23T02:09:48.472Z,86.45
2022-09-23T02:11:23.605Z,86.51
2022-09-23T02:12:26.704Z,86.53
2022-09-23T02:13:29.614Z,86.45
2022-09-23T02:15:04.531Z,86.33
2022-09-23T02:16:07.730Z,86.36
2022-09-23T02:17:11.239Z,86.30
2022-09-23T02:18:46.085Z,86.26
2022-09-23T02:19:49.091Z,86.28
2022-09-23T02:20:52.054Z,86.30
2022-09-23T02:22:27.021Z,86.21
2022-09-23T02:23:29.936Z,86.14
2022-09-23T02:24:33.134Z,86.11
2022-09-23T02:26:08.125Z,86.15
2022-09-23T02:27:11.403Z,86.05
2022-09-23T02:28:14.487Z,86.00
2022-09-23T02:29:49.895Z,85.98
2022-09-23T02:30:53.124Z,85.97
2022-09-23T02:31:56.055Z,85.97
2022-09-23T02:33:31.841Z,85.92
2022-09-23T02:34:34.848Z,86.00
2022-09-23T02:35:37.839Z,86.01
2022-09-23T02:37:13.014Z,86.12
2022-09-23T02:38:16.077Z,86.13
2022-09-23T02:39:19.246Z,86.16
2022-09-23T02:40:54.676Z,86.25
2022-09-23T02:41:57.575Z,86.31
2022-09-23T02:43:00.511Z,86.34
2022-09-23T02:44:35.561Z,86.32
2022-09-23T02:45:39.094Z,86.29
2022-09-23T02:46:42.685Z,86.27
2022-09-23T02:48:17.687Z,86.30
2022-09-23T02:49:20.578Z,86.32
2022-09-23T02:50:23.682Z,86.41
2022-09-23T02:51:58.495Z,86.49
2022-09-23T02:53:01.626Z,86.63
2022-09-23T02:54:04.647Z,86.67
2022-09-23T02:55:39.794Z,86.69
2022-09-23T02:56:42.816Z,86.70
2022-09-23T02:57:46.088Z,86.68
2022-09-23T02:59:21.226Z,86.82
2022-09-23T03:00:17.612Z,86.82
2022-09-23T03:01:20.783Z,86.96
2022-09-23T03:02:24.459Z,86.95
2022-09-23T03:03:59.667Z,87.01
2022-09-23T03:05:02.656Z,87.03
2022-09-23T03:06:05.665Z,87.03
2022-09-23T03:07:40.651Z,87.07
2022-09-23T03:08:43.599Z,87.00
2022-09-23T03:09:46.708Z,87.03
2022-09-23T03:11:21.895Z,87.08
2022-09-23T03:12:25.051Z,87.04
2022-09-23T03:13:34.398Z,87.06
2022-09-23T03:15:09.652Z,87.09
2022-09-23T03:16:12.771Z,87.03
2022-09-23T03:17:16.373Z,87.09
2022-09-23T03:18:51.455Z,87.08
2022-09-23T03:19:54.370Z,87.07
2022-09-23T03:20:57.485Z,87.06
2022-09-23T03:22:32.979Z,87.02
2022-09-23T03:23:36.247Z,87.03
2022-09-23T03:24:39.472Z,87.01
2022-09-23T03:26:18.077Z,86.96
2022-09-23T03:27:21.141Z,86.91
2022-09-23T03:28:24.095Z,86.84
2022-09-23T03:29:59.036Z,86.85
2022-09-23T03:31:02.132Z,86.83
2022-09-23T03:32:05.343Z,86.83
2022-09-23T03:33:40.125Z,86.81
2022-09-23T03:34:43.101Z,86.80
2022-09-23T03:35:46.217Z,86.84
2022-09-23T03:37:21.440Z,86.86
2022-09-23T03:38:24.413Z,86.82
2022-09-23T03:39:27.419Z,86.81
2022-09-23T03:41:02.717Z,86.70
2022-09-23T03:42:05.724Z,86.71
2022-09-23T03:43:08.789Z,86.72
2022-09-23T03:44:43.856Z,86.71
2022-09-23T03:45:47.219Z,86.64
2022-09-23T03:46:50.687Z,86.57
2022-09-23T03:48:25.616Z,86.55
2022-09-23T03:49:28.707Z,86.56
2022-09-23T03:50:31.607Z,86.50
2022-09-23T03:52:06.570Z,86.39
2022-09-23T03:53:09.742Z,86.42
2022-09-23T03:54:13.155Z,86.45
2022-09-23T03:55:47.992Z,86.44
2022-09-23T03:56:50.983Z,86.38
2022-09-23T03:57:54.123Z,86.39
2022-09-23T03:59:28.874Z,86.42
2022-09-23T04:00:18.265Z,86.33
2022-09-23T04:01:21.780Z,86.38
2022-09-23T04:02:25.533Z,86.37
2022-09-23T04:04:04.003Z,86.43
2022-09-23T04:05:48.625Z,86.75
2022-09-23T04:06:52.252Z,86.77
2022-09-23T04:07:55.881Z,86.69
2022-09-23T04:09:31.505Z,86.78
2022-09-23T04:10:34.971Z,86.79
2022-09-23T04:11:41.419Z,86.92
2022-09-23T04:13:17.105Z,86.92
2022-09-23T04:14:20.530Z,87.01
2022-09-23T04:15:24.006Z,87.07
2022-09-23T04:17:00.057Z,87.23
2022-09-23T04:18:03.493Z,87.19
2022-09-23T04:19:11.360Z,87.24
2022-09-23T04:20:47.331Z,87.33
2022-09-23T04:21:50.823Z,87.56
2022-09-23T04:22:54.447Z,87.53
2022-09-23T04:24:30.169Z,87.47
2022-09-23T04:25:33.589Z,87.57
2022-09-23T04:26:37.115Z,87.48
2022-09-23T04:28:18.316Z,87.44
2022-09-23T04:29:21.736Z,87.44
2022-09-23T04:30:25.177Z,87.45
2022-09-23T04:32:01.100Z,87.54
2022-09-23T04:33:04.430Z,87.55
2022-09-23T04:34:08.080Z,87.59
2022-09-23T04:35:46.167Z,87.59
2022-09-23T04:36:49.742Z,87.62
2022-09-23T04:37:53.171Z,87.62
2022-09-23T04:39:28.599Z,87.67
2022-09-23T04:40:32.249Z,87.74
2022-09-23T04:41:36.135Z,87.74
2022-09-23T04:43:15.207Z,87.69
2022-09-23T04:44:18.718Z,87.72
2022-09-23T04:45:22.135Z,87.80
2022-09-23T04:46:57.924Z,87.81
2022-09-23T04:48:01.547Z,87.83
2022-09-23T04:49:05.139Z,87.83
2022-09-23T04:50:46.006Z,87.79
2022-09-23T04:51:49.495Z,87.84
2022-09-23T04:52:52.998Z,87.81
2022-09-23T04:54:28.718Z,87.91
2022-09-23T04:55:32.284Z,87.86
2022-09-23T04:56:35.817Z,87.88
2022-09-23T04:58:11.178Z,87.82
2022-09-23T04:59:14.490Z,87.87
2022-09-23T05:00:18.359Z,87.97
2022-09-23T05:01:22.460Z,87.91
2022-09-23T05:02:26.818Z,87.95
2022-09-23T05:04:02.642Z,87.90
2022-09-23T05:05:06.492Z,87.93
2022-09-23T05:06:09.736Z,87.88
2022-09-23T05:07:49.541Z,87.89
2022-09-23T05:08:52.856Z,87.97
2022-09-23T05:09:56.334Z,87.93
2022-09-23T05:11:31.642Z,88.01
2022-09-23T05:12:35.150Z,88.09
2022-09-23T05:13:43.693Z,88.04
2022-09-23T05:15:19.176Z,88.03
2022-09-23T05:16:22.749Z,88.00
2022-09-23T05:17:26.398Z,88.01
2022-09-23T05:19:07.125Z,87.95
2022-09-23T05:20:10.498Z,87.98
2022-09-23T05:21:14.024Z,87.98
2022-09-23T05:22:49.403Z,87.96
2022-09-23T05:23:52.755Z,88.04
2022-09-23T05:24:56.183Z,87.98
2022-09-23T05:26:31.540Z,88.08
2022-09-23T05:27:35.088Z,88.08
2022-09-23T05:28:38.373Z,88.03
2022-09-23T05:30:13.654Z,88.04
2022-09-23T05:31:23.058Z,88.04
2022-09-23T05:32:27.045Z,88.10
2022-09-23T05:34:02.500Z,88.07
2022-09-23T05:35:05.833Z,88.05
2022-09-23T05:36:09.202Z,88.04
2022-09-23T05:37:50.550Z,88.15
2022-09-23T05:38:53.980Z,88.13
2022-09-23T05:39:57.681Z,88.07
2022-09-23T05:41:33.746Z,88.06
2022-09-23T05:42:37.186Z,88.04
2022-09-23T05:43:40.786Z,88.06
2022-09-23T05:45:16.459Z,88.00
2022-09-23T05:46:20.124Z,88.07
2022-09-23T05:47:23.785Z,88.07
2022-09-23T05:49:02.661Z,88.04
2022-09-23T05:50:40.527Z,88.04
2022-09-23T05:51:43.927Z,88.06
2022-09-23T05:53:19.397Z,88.01
2022-09-23T05:54:22.587Z,88.00
2022-09-23T05:55:25.797Z,88.02
2022-09-23T05:57:04.242Z,87.94
2022-09-23T05:58:08.495Z,87.92
2022-09-23T05:59:11.827Z,87.86
2022-09-23T06:00:18.282Z,87.90
2022-09-23T06:01:21.634Z,87.93
2022-09-23T06:02:25.737Z,87.92
2022-09-23T06:04:02.053Z,87.87
2022-09-23T06:05:05.714Z,87.93
2022-09-23T06:06:09.345Z,87.87
2022-09-23T06:07:50.129Z,87.86
2022-09-23T06:08:53.586Z,87.85
2022-09-23T06:09:57.060Z,87.86
2022-09-23T06:11:36.004Z,87.74
2022-09-23T06:12:39.381Z,87.71
2022-09-23T06:13:42.801Z,87.68
2022-09-23T06:15:18.628Z,87.70
2022-09-23T06:16:22.323Z,87.68
2022-09-23T06:17:25.891Z,87.63
2022-09-23T06:19:05.288Z,87.62
2022-09-23T06:20:09.119Z,87.64
2022-09-23T06:21:12.515Z,87.59
2022-09-23T06:22:51.004Z,87.50
2022-09-23T06:24:02.428Z,87.33
2022-09-23T06:25:17.815Z,87.32
2022-09-23T06:26:53.318Z,87.27
2022-09-23T06:27:56.559Z,87.19
2022-09-23T06:28:59.779Z,87.22
2022-09-23T06:30:35.376Z,86.96
2022-09-23T06:31:39.072Z,86.95
2022-09-23T06:32:42.888Z,86.98
2022-09-23T06:34:28.821Z,86.99
2022-09-23T06:36:00.752Z,86.96
2022-09-23T06:37:26.829Z,86.76
2022-09-23T06:39:02.246Z,86.79
2022-09-23T06:40:05.527Z,86.73
2022-09-23T06:41:09.498Z,86.65
2022-09-23T06:42:47.972Z,86.63
2022-09-23T06:43:53.542Z,86.57
2022-09-23T06:44:56.982Z,86.55
2022-09-23T06:46:32.619Z,86.54
2022-09-23T06:47:36.837Z,86.62
2022-09-23T06:48:45.382Z,86.55
2022-09-23T06:50:21.343Z,86.49
2022-09-23T06:51:24.556Z,86.50
2022-09-23T06:52:27.932Z,86.47
2022-09-23T06:54:03.220Z,86.41
2022-09-23T06:55:06.579Z,86.43
2022-09-23T06:56:09.683Z,86.45
2022-09-23T06:57:51.685Z,86.34
2022-09-23T06:58:54.971Z,86.37
2022-09-23T06:59:58.115Z,85.88
2022-09-23T07:00:17.833Z,85.88
2022-09-23T07:01:21.310Z,85.98
2022-09-23T07:02:26.079Z,85.92
2022-09-23T07:04:02.278Z,85.84
2022-09-23T07:05:10.079Z,85.89
2022-09-23T07:06:13.491Z,85.87
2022-09-23T07:07:48.914Z,85.99
2022-09-23T07:08:52.189Z,85.79
2022-09-23T07:09:55.446Z,85.80
2022-09-23T07:11:30.641Z,85.82
2022-09-23T07:12:34.173Z,85.92
2022-09-23T07:13:37.730Z,85.81
2022-09-23T07:15:13.127Z,85.72
2022-09-23T07:16:17.013Z,85.89
2022-09-23T07:17:20.696Z,85.83
2022-09-23T07:18:56.262Z,85.81
2022-09-23T07:19:59.803Z,85.77
2022-09-23T07:21:03.529Z,85.72
2022-09-23T07:22:38.791Z,85.66
2022-09-23T07:23:42.194Z,85.67
2022-09-23T07:24:45.387Z,85.67
2022-09-23T07:26:20.993Z,85.76
2022-09-23T07:27:31.213Z,85.79
2022-09-23T07:28:34.454Z,85.79
2022-09-23T07:30:27.138Z,85.57
2022-09-23T07:31:46.049Z,85.68
2022-09-23T07:33:17.745Z,85.84
2022-09-23T07:35:02.819Z,85.73
2022-09-23T07:36:06.051Z,86.00
2022-09-23T07:37:09.325Z,85.85
2022-09-23T07:38:51.120Z,85.69
2022-09-23T07:39:54.413Z,85.61
2022-09-23T07:40:58.404Z,85.59
2022-09-23T07:42:33.904Z,85.22
2022-09-23T07:43:37.415Z,85.20
2022-09-23T07:44:40.843Z,85.08
2022-09-23T07:46:16.631Z,84.97
2022-09-23T07:47:20.535Z,85.08
2022-09-23T07:48:23.744Z,84.98
2022-09-23T07:50:04.201Z,84.81
2022-09-23T07:51:07.534Z,84.83
2022-09-23T07:52:16.818Z,84.59
2022-09-23T07:53:52.354Z,84.48
2022-09-23T07:54:56.060Z,84.30
2022-09-23T07:56:03.692Z,84.36
2022-09-23T07:57:38.769Z,84.41
2022-09-23T07:58:42.085Z,84.04
2022-09-23T07:59:45.352Z,84.01
2022-09-23T08:00:17.322Z,84.21
2022-09-23T08:01:20.958Z,84.23
2022-09-23T08:02:25.082Z,83.76
2022-09-23T08:04:05.755Z,82.71
2022-09-23T08:05:08.992Z,82.81
2022-09-23T08:06:12.177Z,82.71
2022-09-23T08:07:47.741Z,82.69
2022-09-23T08:08:55.615Z,81.88
2022-09-23T08:09:59.341Z,81.87
2022-09-23T08:11:34.541Z,81.97
2022-09-23T08:12:38.015Z,81.60
2022-09-23T08:13:41.480Z,81.39
2022-09-23T08:15:16.691Z,80.19
2022-09-23T08:16:20.545Z,80.63
2022-09-23T08:17:23.985Z,80.70
2022-09-23T08:18:59.534Z,80.17
2022-09-23T08:20:03.100Z,80.47
2022-09-23T08:21:06.461Z,80.77
2022-09-23T08:22:41.715Z,80.39
2022-09-23T08:23:44.830Z,80.67
2022-09-23T08:24:48.334Z,80.74
2022-09-23T08:26:33.858Z,80.64
2022-09-23T08:27:37.074Z,80.50
2022-09-23T08:28:40.403Z,80.27
2022-09-23T08:30:15.674Z,80.16
2022-09-23T08:31:19.263Z,80.03
2022-09-23T08:32:22.411Z,79.71
2022-09-23T08:34:03.719Z,80.32
2022-09-23T08:35:07.127Z,80.59
2022-09-23T08:36:10.229Z,80.17
2022-09-23T08:37:45.593Z,79.81
2022-09-23T08:38:49.007Z,79.48
2022-09-23T08:39:52.245Z,79.68
2022-09-23T08:41:28.317Z,80.06
2022-09-23T08:42:38.412Z,79.60
2022-09-23T08:43:41.692Z,79.72
2022-09-23T08:45:17.539Z,79.81
2022-09-23T08:46:20.945Z,80.16
2022-09-23T08:47:24.406Z,79.99
2022-09-23T08:49:04.911Z,80.11
2022-09-23T08:50:08.132Z,80.27
2022-09-23T08:51:11.521Z,80.19
2022-09-23T08:52:46.789Z,79.62
2022-09-23T08:53:49.919Z,79.49
2022-09-23T08:54:58.881Z,79.27
2022-09-23T08:56:35.400Z,79.25
2022-09-23T08:57:38.881Z,78.92
2022-09-23T08:59:16.675Z,79.32
2022-09-23T09:00:18.146Z,79.26
2022-09-23T09:01:21.634Z,78.77
2022-09-23T09:02:25.635Z,78.95
2022-09-23T09:04:01.248Z,78.06
2022-09-23T09:05:10.058Z,77.91
2022-09-23T09:06:13.364Z,77.60
2022-09-23T09:08:28.131Z,78.03
2022-09-23T09:09:31.269Z,78.11
2022-09-23T09:10:34.663Z,77.99
2022-09-23T09:12:10.078Z,77.76
2022-09-23T09:13:13.365Z,78.04
2022-09-23T09:14:16.625Z,77.97
2022-09-23T09:15:54.994Z,77.52
2022-09-23T09:17:17.163Z,77.03
2022-09-23T09:18:26.771Z,77.41
2022-09-23T09:20:02.210Z,77.56
2022-09-23T09:21:05.689Z,77.68
2022-09-23T09:22:08.917Z,77.94
2022-09-23T09:23:44.451Z,76.71
2022-09-23T09:24:50.164Z,77.11
2022-09-23T09:25:55.039Z,77.11
2022-09-23T09:27:30.590Z,77.28
2022-09-23T09:28:33.786Z,77.52
2022-09-23T09:30:14.519Z,77.85
2022-09-23T09:31:50.296Z,78.58
2022-09-23T09:32:53.730Z,77.67
2022-09-23T09:33:56.925Z,77.30
2022-09-23T09:35:32.230Z,76.91
2022-09-23T09:36:36.748Z,76.90
2022-09-23T09:37:46.988Z,77.38
2022-09-23T09:39:26.227Z,77.61
2022-09-23T09:40:29.778Z,77.82
2022-09-23T09:41:33.632Z,77.27
2022-09-23T09:43:09.048Z,76.11
2022-09-23T09:44:13.289Z,75.99
2022-09-23T09:45:19.759Z,76.51
2022-09-23T09:46:58.106Z,77.46
2022-09-23T09:48:01.723Z,77.33
2022-09-23T09:49:04.910Z,76.97
2022-09-23T09:50:40.311Z,76.73
2022-09-23T09:51:43.587Z,76.03
2022-09-23T09:52:47.014Z,75.76
2022-09-23T09:54:22.239Z,75.59
2022-09-23T09:55:25.518Z,75.70
2022-09-23T09:56:28.770Z,75.30
2022-09-23T09:58:11.198Z,75.39
2022-09-23T09:59:14.379Z,75.10
2022-09-23T10:00:18.064Z,75.23
2022-09-23T10:01:21.340Z,75.18
2022-09-23T10:02:25.239Z,75.32
2022-09-23T10:04:04.957Z,75.16
2022-09-23T10:05:08.545Z,74.87
2022-09-23T10:06:11.756Z,74.85
2022-09-23T10:07:47.285Z,75.17
2022-09-23T10:08:50.548Z,75.20
2022-09-23T10:09:58.301Z,75.00
2022-09-23T10:12:01.421Z,74.46
2022-09-23T10:13:04.988Z,74.16
2022-09-23T10:14:08.272Z,74.21
2022-09-23T10:15:49.527Z,73.64
2022-09-23T10:16:53.031Z,73.77
2022-09-23T10:17:56.554Z,73.88
2022-09-23T10:19:31.949Z,74.49
2022-09-23T10:20:35.109Z,74.46
2022-09-23T10:21:38.369Z,73.32
2022-09-23T10:23:13.875Z,73.66
2022-09-23T10:24:17.338Z,74.06
2022-09-23T10:25:20.625Z,74.31
2022-09-23T10:26:56.121Z,74.43
2022-09-23T10:27:59.166Z,74.87
2022-09-23T10:29:05.936Z,73.69
2022-09-23T10:30:41.738Z,74.33
2022-09-23T10:31:45.302Z,74.23
2022-09-23T10:32:48.477Z,74.05
2022-09-23T10:34:23.937Z,74.35
2022-09-23T10:35:27.358Z,74.32
2022-09-23T10:36:30.881Z,73.83
2022-09-23T10:38:10.832Z,73.53
2022-09-23T10:39:14.312Z,73.78
2022-09-23T10:40:18.196Z,73.20
2022-09-23T10:41:54.506Z,73.20
2022-09-23T10:42:57.663Z,73.30
2022-09-23T10:44:00.948Z,73.19
2022-09-23T10:45:39.695Z,73.20
2022-09-23T10:46:46.337Z,73.71
2022-09-23T10:47:49.768Z,73.87
2022-09-23T10:49:25.178Z,72.96
2022-09-23T10:50:28.432Z,73.66
2022-09-23T10:51:32.195Z,73.81
2022-09-23T10:53:07.374Z,73.32
2022-09-23T10:54:10.811Z,72.80
2022-09-23T10:55:14.140Z,73.07
2022-09-23T10:56:49.612Z,72.97
2022-09-23T10:58:00.203Z,72.74
2022-09-23T10:59:03.616Z,72.43
2022-09-23T11:00:17.933Z,72.56
2022-09-23T11:01:21.403Z,72.24
2022-09-23T11:02:25.437Z,72.32
2022-09-23T11:04:01.027Z,72.62
2022-09-23T11:05:05.665Z,71.98
2022-09-23T11:06:09.026Z,71.45
2022-09-23T11:07:44.621Z,71.84
2022-09-23T11:08:48.015Z,71.60
2022-09-23T11:09:51.039Z,71.18
2022-09-23T11:11:58.687Z,71.77
2022-09-23T11:13:01.820Z,71.85
2022-09-23T11:14:05.239Z,71.32
2022-09-23T11:15:40.714Z,71.74
2022-09-23T11:16:44.304Z,71.81
2022-09-23T11:17:48.458Z,71.40
2022-09-23T11:19:23.962Z,71.56
2022-09-23T11:20:31.823Z,70.61
2022-09-23T11:21:35.334Z,70.76
2022-09-23T11:23:10.674Z,70.97
2022-09-23T11:24:14.073Z,70.96
2022-09-23T11:25:17.689Z,72.09
2022-09-23T11:26:53.202Z,71.78
2022-09-23T11:27:56.481Z,71.44
2022-09-23T11:28:59.941Z,71.87
2022-09-23T11:30:36.153Z,71.38
2022-09-23T11:31:39.800Z,71.25
2022-09-23T11:32:48.160Z,71.62
2022-09-23T11:34:24.063Z,70.95
2022-09-23T11:35:33.201Z,70.75
2022-09-23T11:36:36.554Z,70.09
2022-09-23T11:38:12.108Z,71.51
2022-09-23T11:39:15.454Z,71.73
2022-09-23T11:40:19.244Z,71.77
2022-09-23T11:41:59.671Z,71.16
2022-09-23T11:43:03.196Z,71.50
2022-09-23T11:44:06.653Z,71.47
2022-09-23T11:45:42.659Z,72.13
2022-09-23T11:46:46.412Z,72.29
2022-09-23T11:47:49.804Z,72.82
2022-09-23T11:49:25.355Z,72.91
2022-09-23T11:50:28.698Z,72.71
2022-09-23T11:51:32.242Z,73.02
2022-09-23T11:53:07.685Z,72.63
2022-09-23T11:54:10.939Z,72.73
2022-09-23T11:55:26.424Z,72.31
2022-09-23T11:57:39.817Z,72.54
2022-09-23T11:59:05.323Z,71.80
2022-09-23T12:00:18.502Z,71.43
2022-09-23T12:01:39.056Z,71.79
2022-09-23T12:03:10.342Z,71.81
2022-09-23T12:05:14.314Z,72.00
2022-09-23T12:06:18.857Z,72.20
2022-09-23T12:07:22.032Z,72.78
2022-09-23T12:08:57.463Z,72.47
2022-09-23T12:10:28.244Z,72.36
2022-09-23T12:11:31.456Z,72.44
2022-09-23T12:13:13.154Z,72.08
2022-09-23T12:14:16.385Z,72.31
2022-09-23T12:15:19.565Z,71.89
2022-09-23T12:16:54.933Z,71.75
2022-09-23T12:17:58.427Z,71.78
2022-09-23T12:19:08.618Z,71.97
2022-09-23T12:20:43.915Z,71.95
2022-09-23T12:21:56.920Z,70.85
2022-09-23T12:23:00.280Z,71.62
2022-09-23T12:24:35.728Z,72.04
2022-09-23T12:25:38.885Z,71.14
2022-09-23T12:26:42.411Z,71.27
2022-09-23T12:28:17.823Z,71.89
2022-09-23T12:29:21.289Z,71.47
2022-09-23T12:30:25.029Z,71.89
2022-09-23T12:32:00.963Z,71.32
2022-09-23T12:33:04.153Z,71.29
2022-09-23T12:34:07.501Z,71.95
2022-09-23T12:35:42.943Z,70.12
2022-09-23T12:36:46.134Z,69.68
2022-09-23T12:37:49.498Z,69.63
2022-09-23T12:39:24.941Z,69.88
2022-09-23T12:40:28.575Z,69.58
2022-09-23T12:41:32.193Z,69.67
2022-09-23T12:43:11.970Z,69.12
2022-09-23T12:44:15.368Z,68.86
2022-09-23T12:45:18.783Z,68.76
2022-09-23T12:46:54.635Z,68.60
2022-09-23T12:47:57.799Z,69.31
2022-09-23T12:49:00.964Z,69.53
2022-09-23T12:50:36.420Z,69.27
2022-09-23T12:51:39.831Z,69.38
2022-09-23T12:52:42.996Z,69.48
2022-09-23T12:54:18.679Z,69.21
2022-09-23T12:55:22.057Z,68.93
2022-09-23T12:56:25.493Z,68.69
2022-09-23T12:58:00.813Z,68.77
2022-09-23T12:59:04.061Z,68.99
2022-09-23T13:00:18.386Z,68.98
2022-09-23T13:01:26.788Z,68.64
2022-09-23T13:02:31.152Z,68.22
2022-09-23T13:04:07.026Z,68.87
2022-09-23T13:05:10.747Z,68.21
2022-09-23T13:06:14.078Z,68.53
2022-09-23T13:07:49.396Z,67.77
2022-09-23T13:08:52.922Z,68.40
2022-09-23T13:09:56.061Z,68.25
2022-09-23T13:11:31.337Z,67.13
2022-09-23T13:12:34.579Z,66.79
2022-09-23T13:13:37.678Z,67.19
2022-09-23T13:15:19.252Z,67.88
2022-09-23T13:16:22.576Z,68.46
2022-09-23T13:17:26.701Z,67.33
2022-09-23T13:19:01.958Z,67.37
2022-09-23T13:20:05.301Z,66.94
2022-09-23T13:21:08.590Z,66.43
2022-09-23T13:22:43.928Z,67.72
2022-09-23T13:23:47.264Z,66.99
2022-09-23T13:24:50.525Z,66.57
2022-09-23T13:26:26.025Z,65.79
2022-09-23T13:27:29.486Z,66.09
2022-09-23T13:28:32.750Z,66.16
2022-09-23T13:30:08.112Z,65.73
2022-09-23T13:31:18.310Z,65.16
2022-09-23T13:32:22.199Z,65.50
2022-09-23T13:33:57.619Z,65.28
2022-09-23T13:35:00.912Z,65.24
2022-09-23T13:36:04.173Z,65.57
2022-09-23T13:37:39.720Z,65.77
2022-09-23T13:38:42.931Z,65.69
2022-09-23T13:39:46.194Z,66.31
2022-09-23T13:41:22.291Z,66.72
2022-09-23T13:42:25.559Z,65.47
2022-09-23T13:43:28.693Z,64.94
2022-09-23T13:45:10.270Z,65.19
2022-09-23T13:46:13.970Z,64.92
2022-09-23T13:47:17.493Z,65.22
2022-09-23T13:48:52.808Z,65.74
2022-09-23T13:49:56.287Z,65.33
2022-09-23T13:50:59.756Z,65.40
2022-09-23T13:52:35.077Z,65.52
2022-09-23T13:53:38.670Z,65.73
2022-09-23T13:54:42.117Z,66.89
2022-09-23T13:56:17.541Z,65.53
2022-09-23T13:57:20.798Z,65.47
2022-09-23T13:58:24.082Z,65.12
2022-09-23T13:59:59.527Z,66.09
2022-09-23T14:00:17.891Z,66.09
2022-09-23T14:01:21.472Z,65.07
2022-09-23T14:02:25.194Z,64.90
2022-09-23T14:04:00.934Z,63.92
2022-09-23T14:05:04.330Z,65.56
2022-09-23T14:06:07.720Z,65.54
2022-09-23T14:07:42.968Z,65.04
2022-09-23T14:08:46.301Z,64.66
2022-09-23T14:09:49.537Z,65.22
2022-09-23T14:11:24.966Z,64.23
2022-09-23T14:12:28.444Z,62.94
2022-09-23T14:13:31.992Z,63.73
2022-09-23T14:15:07.528Z,66.06
2022-09-23T14:16:10.743Z,65.54
2022-09-23T14:17:14.920Z,66.34
2022-09-23T14:18:50.095Z,65.33
2022-09-23T14:19:53.225Z,65.25
2022-09-23T14:20:56.508Z,64.29
2022-09-23T14:22:32.195Z,65.08
2022-09-23T14:23:35.550Z,65.75
2022-09-23T14:24:38.980Z,65.94
2022-09-23T14:26:14.501Z,64.95
2022-09-23T14:27:17.925Z,64.95
2022-09-23T14:28:21.095Z,65.56
2022-09-23T14:29:56.480Z,65.75
2022-09-23T14:30:59.927Z,65.71
2022-09-23T14:32:03.798Z,65.80
2022-09-23T14:33:39.834Z,65.66
2022-09-23T14:34:43.146Z,65.70
2022-09-23T14:35:46.741Z,65.71
2022-09-23T14:37:22.447Z,65.84
2022-09-23T14:38:26.151Z,66.17
2022-09-23T14:39:29.517Z,66.26
2022-09-23T14:41:10.644Z,66.30
2022-09-23T14:42:13.777Z,65.80
2022-09-23T14:43:17.213Z,66.08
2022-09-23T14:44:53.279Z,65.70
2022-09-23T14:45:56.711Z,65.86
2022-09-23T14:47:00.714Z,65.64
2022-09-23T14:48:42.044Z,66.95
2022-09-23T14:49:45.306Z,66.77
2022-09-23T14:50:48.934Z,66.81
2022-09-23T14:52:29.822Z,67.13
2022-09-23T14:53:33.025Z,66.75
2022-09-23T14:54:36.511Z,67.22
2022-09-23T14:56:11.999Z,67.72
2022-09-23T14:57:16.993Z,67.09
2022-09-23T14:58:20.191Z,67.12
2022-09-23T14:59:55.984Z,66.80
2022-09-23T15:00:17.526Z,66.80
2022-09-23T15:01:21.017Z,67.36
2022-09-23T15:02:25.342Z,67.08
2022-09-23T15:04:01.146Z,67.38
2022-09-23T15:05:04.493Z,67.46
2022-09-23T15:06:14.089Z,67.42
2022-09-23T15:07:49.102Z,67.55
2022-09-23T15:08:52.553Z,67.66
2022-09-23T15:09:56.062Z,67.46
2022-09-23T15:11:31.316Z,67.57
2022-09-23T15:12:34.682Z,66.70
2022-09-23T15:13:37.790Z,67.14
2022-09-23T15:15:46.124Z,67.45
2022-09-23T15:16:49.750Z,66.54
2022-09-23T15:17:53.243Z,66.78
2022-09-23T15:19:28.470Z,67.75
2022-09-23T15:20:31.775Z,67.39
2022-09-23T15:21:35.392Z,67.46
2022-09-23T15:23:10.577Z,67.73
2022-09-23T15:24:19.677Z,67.97
2022-09-23T15:25:22.876Z,67.72
2022-09-23T15:26:58.017Z,67.72
2022-09-23T15:28:01.324Z,67.55
2022-09-23T15:29:04.878Z,66.92
2022-09-23T15:30:40.192Z,68.00
2022-09-23T15:31:43.787Z,68.25
2022-09-23T15:32:47.395Z,68.30
2022-09-23T15:34:22.631Z,67.49
2022-09-23T15:35:26.178Z,67.91
2022-09-23T15:36:29.666Z,67.80
2022-09-23T15:38:04.843Z,68.47
2022-09-23T15:39:08.337Z,68.42
2022-09-23T15:40:22.390Z,69.06
2022-09-23T15:41:58.177Z,69.73
2022-09-23T15:43:01.339Z,69.82
2022-09-23T15:44:11.412Z,69.55
2022-09-23T15:45:47.054Z,69.38
2022-09-23T15:46:50.830Z,69.27
2022-09-23T15:47:53.891Z,69.50
2022-09-23T15:49:29.393Z,69.87
2022-09-23T15:50:32.401Z,69.75
2022-09-23T15:51:35.687Z,69.53
2022-09-23T15:53:11.064Z,70.08
2022-09-23T15:54:14.616Z,69.95
2022-09-23T15:55:17.770Z,69.72
2022-09-23T15:56:53.278Z,70.41
2022-09-23T15:57:56.514Z,70.21
2022-09-23T15:58:59.738Z,69.81
2022-09-23T16:00:18.381Z,69.97
2022-09-23T16:01:21.913Z,70.40